sensor_id;sensor_type;location;lat;lon;timestamp;P1;durP1;ratioP1;P2;durP2;ratioP2
8978;SDS011;4524;51.364;5.448;2023-04-03T00:01:23;4.87;;;4.17;;
8978;SDS011;4524;51.364;5.448;2023-04-03T00:03:51;5.20;;;4.37;;
8978;SDS011;4524;51.364;5.448;2023-04-03T00:06:20;4.57;;;4.00;;
8978;SDS011;4524;51.364;5.448;2023-04-03T00:08:48;5.67;;;4.33;;
8978;SDS011;4524;51.364;5.448;2023-04-03T00:11:17;6.43;;;4.53;;
8978;SDS011;4524;51.364;5.448;2023-04-03T00:13:46;5.47;;;4.30;;
8978;SDS011;4524;51.364;5.448;2023-04-03T00:16:14;4.67;;;4.27;;
8978;SDS011;4524;51.364;5.448;2023-04-03T00:18:43;5.87;;;4.60;;
8978;SDS011;4524;51.364;5.448;2023-04-03T00:21:11;5.87;;;4.20;;
8978;SDS011;4524;51.364;5.448;2023-04-03T00:23:40;5.60;;;4.57;;
8978;SDS011;4524;51.364;5.448;2023-04-03T00:26:08;4.80;;;4.30;;
8978;SDS011;4524;51.364;5.448;2023-04-03T00:28:40;6.27;;;4.67;;
8978;SDS011;4524;51.364;5.448;2023-04-03T00:31:09;5.03;;;4.53;;
8978;SDS011;4524;51.364;5.448;2023-04-03T00:33:37;6.13;;;5.20;;
8978;SDS011;4524;51.364;5.448;2023-04-03T00:36:06;6.47;;;4.13;;
8978;SDS011;4524;51.364;5.448;2023-04-03T00:38:35;6.63;;;4.93;;
8978;SDS011;4524;51.364;5.448;2023-04-03T00:41:03;6.23;;;4.93;;
8978;SDS011;4524;51.364;5.448;2023-04-03T00:43:32;6.17;;;4.70;;
8978;SDS011;4524;51.364;5.448;2023-04-03T00:46:01;7.67;;;5.10;;
8978;SDS011;4524;51.364;5.448;2023-04-03T00:48:30;7.17;;;5.47;;
8978;SDS011;4524;51.364;5.448;2023-04-03T00:51:01;4.97;;;4.43;;
8978;SDS011;4524;51.364;5.448;2023-04-03T00:53:32;6.77;;;5.40;;
8978;SDS011;4524;51.364;5.448;2023-04-03T00:56:03;7.37;;;5.33;;
8978;SDS011;4524;51.364;5.448;2023-04-03T00:58:37;5.77;;;4.80;;
8978;SDS011;4524;51.364;5.448;2023-04-03T01:01:10;5.77;;;5.10;;
8978;SDS011;4524;51.364;5.448;2023-04-03T01:03:41;6.87;;;5.13;;
8978;SDS011;4524;51.364;5.448;2023-04-03T01:06:10;8.57;;;5.30;;
8978;SDS011;4524;51.364;5.448;2023-04-03T01:08:38;7.13;;;5.53;;
8978;SDS011;4524;51.364;5.448;2023-04-03T01:11:06;6.97;;;5.30;;
8978;SDS011;4524;51.364;5.448;2023-04-03T01:13:34;5.30;;;4.80;;
8978;SDS011;4524;51.364;5.448;2023-04-03T01:16:05;5.83;;;5.30;;
8978;SDS011;4524;51.364;5.448;2023-04-03T01:18:36;6.47;;;5.00;;
8978;SDS011;4524;51.364;5.448;2023-04-03T01:21:13;7.97;;;5.63;;
8978;SDS011;4524;51.364;5.448;2023-04-03T01:24:17;6.17;;;5.00;;
8978;SDS011;4524;51.364;5.448;2023-04-03T01:26:54;7.00;;;5.60;;
8978;SDS011;4524;51.364;5.448;2023-04-03T01:29:23;9.00;;;5.70;;
8978;SDS011;4524;51.364;5.448;2023-04-03T01:31:53;6.07;;;5.30;;
8978;SDS011;4524;51.364;5.448;2023-04-03T01:34:23;6.60;;;5.90;;
8978;SDS011;4524;51.364;5.448;2023-04-03T01:36:52;7.30;;;5.90;;
8978;SDS011;4524;51.364;5.448;2023-04-03T01:39:21;8.07;;;6.00;;
8978;SDS011;4524;51.364;5.448;2023-04-03T01:41:49;7.63;;;6.10;;
8978;SDS011;4524;51.364;5.448;2023-04-03T01:44:25;7.13;;;6.43;;
8978;SDS011;4524;51.364;5.448;2023-04-03T01:46:54;9.37;;;6.43;;
8978;SDS011;4524;51.364;5.448;2023-04-03T01:49:24;8.10;;;6.70;;
8978;SDS011;4524;51.364;5.448;2023-04-03T01:51:52;8.17;;;6.50;;
8978;SDS011;4524;51.364;5.448;2023-04-03T01:54:20;8.77;;;5.83;;
8978;SDS011;4524;51.364;5.448;2023-04-03T01:56:47;7.30;;;6.27;;
8978;SDS011;4524;51.364;5.448;2023-04-03T01:59:16;8.00;;;5.90;;
8978;SDS011;4524;51.364;5.448;2023-04-03T02:01:45;8.00;;;6.67;;
8978;SDS011;4524;51.364;5.448;2023-04-03T02:04:14;8.80;;;6.70;;
8978;SDS011;4524;51.364;5.448;2023-04-03T02:06:42;8.23;;;6.60;;
8978;SDS011;4524;51.364;5.448;2023-04-03T02:09:10;8.60;;;6.63;;
8978;SDS011;4524;51.364;5.448;2023-04-03T02:11:38;6.63;;;6.00;;
8978;SDS011;4524;51.364;5.448;2023-04-03T02:14:06;8.13;;;6.57;;
8978;SDS011;4524;51.364;5.448;2023-04-03T02:16:34;8.33;;;6.77;;
8978;SDS011;4524;51.364;5.448;2023-04-03T02:19:03;9.60;;;7.00;;
8978;SDS011;4524;51.364;5.448;2023-04-03T02:21:32;8.63;;;7.13;;
8978;SDS011;4524;51.364;5.448;2023-04-03T02:24:00;8.17;;;7.00;;
8978;SDS011;4524;51.364;5.448;2023-04-03T02:26:28;9.40;;;7.17;;
8978;SDS011;4524;51.364;5.448;2023-04-03T02:28:56;11.23;;;6.77;;
8978;SDS011;4524;51.364;5.448;2023-04-03T02:31:24;11.33;;;7.23;;
8978;SDS011;4524;51.364;5.448;2023-04-03T02:33:53;10.40;;;7.47;;
8978;SDS011;4524;51.364;5.448;2023-04-03T02:36:21;9.87;;;7.53;;
8978;SDS011;4524;51.364;5.448;2023-04-03T02:38:55;8.43;;;6.60;;
8978;SDS011;4524;51.364;5.448;2023-04-03T02:41:22;7.37;;;6.57;;
8978;SDS011;4524;51.364;5.448;2023-04-03T02:43:52;8.57;;;7.10;;
8978;SDS011;4524;51.364;5.448;2023-04-03T02:46:20;9.57;;;6.97;;
8978;SDS011;4524;51.364;5.448;2023-04-03T02:48:48;9.20;;;7.30;;
8978;SDS011;4524;51.364;5.448;2023-04-03T02:51:17;9.50;;;7.57;;
8978;SDS011;4524;51.364;5.448;2023-04-03T02:53:45;7.70;;;6.63;;
8978;SDS011;4524;51.364;5.448;2023-04-03T02:56:19;11.13;;;7.57;;
8978;SDS011;4524;51.364;5.448;2023-04-03T02:58:47;10.50;;;7.43;;
8978;SDS011;4524;51.364;5.448;2023-04-03T03:01:16;8.67;;;7.03;;
8978;SDS011;4524;51.364;5.448;2023-04-03T03:03:44;9.77;;;7.43;;
8978;SDS011;4524;51.364;5.448;2023-04-03T03:06:13;9.40;;;7.00;;
8978;SDS011;4524;51.364;5.448;2023-04-03T03:08:43;7.93;;;6.57;;
8978;SDS011;4524;51.364;5.448;2023-04-03T03:11:11;8.47;;;6.73;;
8978;SDS011;4524;51.364;5.448;2023-04-03T03:13:41;10.07;;;7.43;;
8978;SDS011;4524;51.364;5.448;2023-04-03T03:16:09;7.60;;;6.67;;
8978;SDS011;4524;51.364;5.448;2023-04-03T03:18:37;6.90;;;6.23;;
8978;SDS011;4524;51.364;5.448;2023-04-03T03:21:05;10.97;;;7.00;;
8978;SDS011;4524;51.364;5.448;2023-04-03T03:23:34;8.27;;;6.70;;
8978;SDS011;4524;51.364;5.448;2023-04-03T03:26:03;8.03;;;6.27;;
8978;SDS011;4524;51.364;5.448;2023-04-03T03:28:33;6.87;;;6.13;;
8978;SDS011;4524;51.364;5.448;2023-04-03T03:31:05;7.53;;;6.83;;
8978;SDS011;4524;51.364;5.448;2023-04-03T03:33:36;8.37;;;6.17;;
8978;SDS011;4524;51.364;5.448;2023-04-03T03:36:04;6.50;;;5.63;;
8978;SDS011;4524;51.364;5.448;2023-04-03T03:38:32;8.17;;;5.57;;
8978;SDS011;4524;51.364;5.448;2023-04-03T03:41:01;8.30;;;6.37;;
8978;SDS011;4524;51.364;5.448;2023-04-03T03:43:31;8.53;;;6.93;;
8978;SDS011;4524;51.364;5.448;2023-04-03T03:45:59;7.70;;;5.50;;
8978;SDS011;4524;51.364;5.448;2023-04-03T03:48:29;6.77;;;6.07;;
8978;SDS011;4524;51.364;5.448;2023-04-03T03:50:57;8.37;;;6.00;;
8978;SDS011;4524;51.364;5.448;2023-04-03T03:53:29;7.80;;;5.80;;
8978;SDS011;4524;51.364;5.448;2023-04-03T03:56:03;6.40;;;5.80;;
8978;SDS011;4524;51.364;5.448;2023-04-03T03:58:33;6.77;;;5.60;;
8978;SDS011;4524;51.364;5.448;2023-04-03T04:01:01;11.17;;;6.27;;
8978;SDS011;4524;51.364;5.448;2023-04-03T04:03:34;9.40;;;5.10;;
8978;SDS011;4524;51.364;5.448;2023-04-03T04:06:03;6.37;;;5.30;;
8978;SDS011;4524;51.364;5.448;2023-04-03T04:08:32;6.87;;;5.93;;
8978;SDS011;4524;51.364;5.448;2023-04-03T04:11:00;6.70;;;5.60;;
8978;SDS011;4524;51.364;5.448;2023-04-03T04:13:28;6.80;;;5.73;;
8978;SDS011;4524;51.364;5.448;2023-04-03T04:15:56;8.30;;;6.10;;
8978;SDS011;4524;51.364;5.448;2023-04-03T04:18:24;6.47;;;5.40;;
8978;SDS011;4524;51.364;5.448;2023-04-03T04:20:53;7.23;;;5.70;;
8978;SDS011;4524;51.364;5.448;2023-04-03T04:23:22;8.40;;;5.63;;
8978;SDS011;4524;51.364;5.448;2023-04-03T04:25:50;6.83;;;5.67;;
8978;SDS011;4524;51.364;5.448;2023-04-03T04:28:19;7.77;;;5.63;;
8978;SDS011;4524;51.364;5.448;2023-04-03T04:30:50;6.00;;;5.00;;
8978;SDS011;4524;51.364;5.448;2023-04-03T04:33:20;7.43;;;5.47;;
8978;SDS011;4524;51.364;5.448;2023-04-03T04:35:48;8.43;;;5.63;;
8978;SDS011;4524;51.364;5.448;2023-04-03T04:38:19;11.60;;;5.40;;
8978;SDS011;4524;51.364;5.448;2023-04-03T04:40:49;7.10;;;4.60;;
8978;SDS011;4524;51.364;5.448;2023-04-03T04:43:18;7.70;;;5.53;;
8978;SDS011;4524;51.364;5.448;2023-04-03T04:45:57;6.47;;;5.30;;
8978;SDS011;4524;51.364;5.448;2023-04-03T04:48:28;7.13;;;5.33;;
8978;SDS011;4524;51.364;5.448;2023-04-03T04:50:58;8.60;;;5.40;;
8978;SDS011;4524;51.364;5.448;2023-04-03T04:53:27;8.47;;;4.97;;
8978;SDS011;4524;51.364;5.448;2023-04-03T04:55:55;8.90;;;5.80;;
8978;SDS011;4524;51.364;5.448;2023-04-03T04:58:24;5.40;;;4.63;;
8978;SDS011;4524;51.364;5.448;2023-04-03T05:00:57;7.27;;;4.50;;
8978;SDS011;4524;51.364;5.448;2023-04-03T05:03:26;8.13;;;4.87;;
8978;SDS011;4524;51.364;5.448;2023-04-03T05:05:54;8.10;;;5.33;;
8978;SDS011;4524;51.364;5.448;2023-04-03T05:08:23;8.00;;;4.50;;
8978;SDS011;4524;51.364;5.448;2023-04-03T05:10:52;6.27;;;4.20;;
8978;SDS011;4524;51.364;5.448;2023-04-03T05:13:23;6.67;;;4.70;;
8978;SDS011;4524;51.364;5.448;2023-04-03T05:15:51;6.93;;;4.10;;
8978;SDS011;4524;51.364;5.448;2023-04-03T05:18:19;8.10;;;4.50;;
8978;SDS011;4524;51.364;5.448;2023-04-03T05:20:48;4.97;;;4.17;;
8978;SDS011;4524;51.364;5.448;2023-04-03T05:23:17;6.03;;;4.07;;
8978;SDS011;4524;51.364;5.448;2023-04-03T05:25:46;7.90;;;4.60;;
8978;SDS011;4524;51.364;5.448;2023-04-03T05:28:17;7.53;;;4.20;;
8978;SDS011;4524;51.364;5.448;2023-04-03T05:30:45;4.67;;;3.83;;
8978;SDS011;4524;51.364;5.448;2023-04-03T05:33:20;6.17;;;4.23;;
8978;SDS011;4524;51.364;5.448;2023-04-03T05:35:50;6.07;;;4.20;;
8978;SDS011;4524;51.364;5.448;2023-04-03T05:38:23;6.77;;;3.87;;
8978;SDS011;4524;51.364;5.448;2023-04-03T05:40:53;4.73;;;3.57;;
8978;SDS011;4524;51.364;5.448;2023-04-03T05:43:23;5.07;;;3.20;;
8978;SDS011;4524;51.364;5.448;2023-04-03T05:45:52;5.57;;;4.17;;
8978;SDS011;4524;51.364;5.448;2023-04-03T05:48:22;4.57;;;3.13;;
8978;SDS011;4524;51.364;5.448;2023-04-03T05:50:50;6.07;;;3.50;;
8978;SDS011;4524;51.364;5.448;2023-04-03T05:53:25;5.10;;;3.63;;
8978;SDS011;4524;51.364;5.448;2023-04-03T05:55:58;5.07;;;3.77;;
8978;SDS011;4524;51.364;5.448;2023-04-03T05:58:30;7.13;;;3.90;;
8978;SDS011;4524;51.364;5.448;2023-04-03T06:00:58;6.97;;;3.60;;
8978;SDS011;4524;51.364;5.448;2023-04-03T06:03:26;5.03;;;3.43;;
8978;SDS011;4524;51.364;5.448;2023-04-03T06:05:55;4.73;;;3.13;;
8978;SDS011;4524;51.364;5.448;2023-04-03T06:08:23;4.43;;;3.10;;
8978;SDS011;4524;51.364;5.448;2023-04-03T06:10:51;3.40;;;3.00;;
8978;SDS011;4524;51.364;5.448;2023-04-03T06:13:19;5.57;;;3.23;;
8978;SDS011;4524;51.364;5.448;2023-04-03T06:15:51;4.80;;;3.07;;
8978;SDS011;4524;51.364;5.448;2023-04-03T06:18:19;6.13;;;3.23;;
8978;SDS011;4524;51.364;5.448;2023-04-03T06:20:47;6.13;;;3.27;;
8978;SDS011;4524;51.364;5.448;2023-04-03T06:23:15;4.50;;;3.33;;
8978;SDS011;4524;51.364;5.448;2023-04-03T06:25:43;7.07;;;3.23;;
8978;SDS011;4524;51.364;5.448;2023-04-03T06:28:11;4.63;;;2.73;;
8978;SDS011;4524;51.364;5.448;2023-04-03T06:30:39;4.87;;;2.83;;
8978;SDS011;4524;51.364;5.448;2023-04-03T06:33:09;6.53;;;3.30;;
8978;SDS011;4524;51.364;5.448;2023-04-03T06:35:37;4.37;;;2.60;;
8978;SDS011;4524;51.364;5.448;2023-04-03T06:38:05;6.77;;;2.90;;
8978;SDS011;4524;51.364;5.448;2023-04-03T06:40:35;6.33;;;2.90;;
8978;SDS011;4524;51.364;5.448;2023-04-03T06:43:04;8.07;;;3.10;;
8978;SDS011;4524;51.364;5.448;2023-04-03T06:45:33;5.97;;;2.83;;
8978;SDS011;4524;51.364;5.448;2023-04-03T06:48:02;5.03;;;3.10;;
8978;SDS011;4524;51.364;5.448;2023-04-03T06:50:33;5.60;;;2.60;;
8978;SDS011;4524;51.364;5.448;2023-04-03T06:53:01;4.67;;;2.40;;
8978;SDS011;4524;51.364;5.448;2023-04-03T06:55:29;4.47;;;3.17;;
8978;SDS011;4524;51.364;5.448;2023-04-03T06:57:58;5.20;;;2.73;;
8978;SDS011;4524;51.364;5.448;2023-04-03T07:00:26;3.73;;;2.60;;
8978;SDS011;4524;51.364;5.448;2023-04-03T07:02:54;6.17;;;2.90;;
8978;SDS011;4524;51.364;5.448;2023-04-03T07:05:23;4.50;;;2.77;;
8978;SDS011;4524;51.364;5.448;2023-04-03T07:07:53;5.33;;;2.70;;
8978;SDS011;4524;51.364;5.448;2023-04-03T07:10:21;6.43;;;2.73;;
8978;SDS011;4524;51.364;5.448;2023-04-03T07:12:49;3.43;;;2.60;;
8978;SDS011;4524;51.364;5.448;2023-04-03T07:15:17;5.23;;;2.77;;
8978;SDS011;4524;51.364;5.448;2023-04-03T07:17:45;3.87;;;2.70;;
8978;SDS011;4524;51.364;5.448;2023-04-03T07:20:13;6.40;;;2.87;;
8978;SDS011;4524;51.364;5.448;2023-04-03T07:22:42;4.83;;;3.10;;
8978;SDS011;4524;51.364;5.448;2023-04-03T07:25:11;8.50;;;3.30;;
8978;SDS011;4524;51.364;5.448;2023-04-03T07:27:39;6.67;;;2.90;;
8978;SDS011;4524;51.364;5.448;2023-04-03T07:30:07;5.47;;;2.60;;
8978;SDS011;4524;51.364;5.448;2023-04-03T07:32:36;7.13;;;2.63;;
8978;SDS011;4524;51.364;5.448;2023-04-03T07:35:04;6.40;;;2.83;;
8978;SDS011;4524;51.364;5.448;2023-04-03T07:37:32;5.03;;;2.70;;
8978;SDS011;4524;51.364;5.448;2023-04-03T07:40:00;5.37;;;2.90;;
8978;SDS011;4524;51.364;5.448;2023-04-03T07:42:31;6.60;;;2.70;;
8978;SDS011;4524;51.364;5.448;2023-04-03T07:44:59;6.00;;;2.87;;
8978;SDS011;4524;51.364;5.448;2023-04-03T07:47:27;4.80;;;2.70;;
8978;SDS011;4524;51.364;5.448;2023-04-03T07:49:55;5.57;;;2.67;;
8978;SDS011;4524;51.364;5.448;2023-04-03T07:52:23;4.27;;;2.30;;
8978;SDS011;4524;51.364;5.448;2023-04-03T07:54:52;5.70;;;2.50;;
8978;SDS011;4524;51.364;5.448;2023-04-03T07:57:19;4.67;;;2.70;;
8978;SDS011;4524;51.364;5.448;2023-04-03T07:59:49;6.27;;;2.50;;
8978;SDS011;4524;51.364;5.448;2023-04-03T08:02:17;4.73;;;2.20;;
8978;SDS011;4524;51.364;5.448;2023-04-03T08:04:45;5.63;;;2.63;;
8978;SDS011;4524;51.364;5.448;2023-04-03T08:07:13;3.70;;;2.40;;
8978;SDS011;4524;51.364;5.448;2023-04-03T08:09:41;5.37;;;2.70;;
8978;SDS011;4524;51.364;5.448;2023-04-03T08:12:10;6.27;;;2.53;;
8978;SDS011;4524;51.364;5.448;2023-04-03T08:14:38;8.33;;;2.63;;
8978;SDS011;4524;51.364;5.448;2023-04-03T08:17:07;3.70;;;2.47;;
8978;SDS011;4524;51.364;5.448;2023-04-03T08:19:38;4.83;;;2.20;;
8978;SDS011;4524;51.364;5.448;2023-04-03T08:22:06;4.27;;;2.40;;
8978;SDS011;4524;51.364;5.448;2023-04-03T08:24:34;5.43;;;2.23;;
8978;SDS011;4524;51.364;5.448;2023-04-03T08:27:06;5.07;;;2.60;;
8978;SDS011;4524;51.364;5.448;2023-04-03T08:29:34;3.10;;;2.10;;
8978;SDS011;4524;51.364;5.448;2023-04-03T08:32:04;5.37;;;2.47;;
8978;SDS011;4524;51.364;5.448;2023-04-03T08:34:33;6.40;;;2.00;;
8978;SDS011;4524;51.364;5.448;2023-04-03T08:37:03;5.33;;;2.30;;
8978;SDS011;4524;51.364;5.448;2023-04-03T08:39:31;3.87;;;2.30;;
8978;SDS011;4524;51.364;5.448;2023-04-03T08:41:59;3.90;;;2.47;;
8978;SDS011;4524;51.364;5.448;2023-04-03T08:44:37;3.20;;;1.97;;
8978;SDS011;4524;51.364;5.448;2023-04-03T08:47:11;4.80;;;1.87;;
8978;SDS011;4524;51.364;5.448;2023-04-03T08:49:49;4.93;;;1.70;;
8978;SDS011;4524;51.364;5.448;2023-04-03T08:52:22;4.03;;;1.93;;
8978;SDS011;4524;51.364;5.448;2023-04-03T08:54:56;4.03;;;2.00;;
8978;SDS011;4524;51.364;5.448;2023-04-03T08:57:28;3.77;;;1.87;;
8978;SDS011;4524;51.364;5.448;2023-04-03T08:59:59;2.17;;;1.77;;
8978;SDS011;4524;51.364;5.448;2023-04-03T09:02:43;3.10;;;1.60;;
8978;SDS011;4524;51.364;5.448;2023-04-03T09:05:16;3.47;;;1.87;;
8978;SDS011;4524;51.364;5.448;2023-04-03T09:07:46;3.73;;;1.87;;
8978;SDS011;4524;51.364;5.448;2023-04-03T09:10:23;3.30;;;1.50;;
8978;SDS011;4524;51.364;5.448;2023-04-03T09:12:55;3.20;;;1.60;;
8978;SDS011;4524;51.364;5.448;2023-04-03T09:15:29;2.10;;;1.53;;
8978;SDS011;4524;51.364;5.448;2023-04-03T09:18:05;4.67;;;1.30;;
8978;SDS011;4524;51.364;5.448;2023-04-03T09:20:43;1.20;;;1.10;;
8978;SDS011;4524;51.364;5.448;2023-04-03T09:23:18;1.60;;;1.00;;
8978;SDS011;4524;51.364;5.448;2023-04-03T09:25:53;2.77;;;1.83;;
8978;SDS011;4524;51.364;5.448;2023-04-03T09:28:25;1.47;;;1.07;;
8978;SDS011;4524;51.364;5.448;2023-04-03T09:30:56;4.00;;;1.13;;
8978;SDS011;4524;51.364;5.448;2023-04-03T09:33:24;2.07;;;1.30;;
8978;SDS011;4524;51.364;5.448;2023-04-03T09:35:53;1.73;;;1.10;;
8978;SDS011;4524;51.364;5.448;2023-04-03T09:38:21;2.13;;;1.20;;
8978;SDS011;4524;51.364;5.448;2023-04-03T09:40:50;1.63;;;1.30;;
8978;SDS011;4524;51.364;5.448;2023-04-03T09:43:32;2.57;;;1.43;;
8978;SDS011;4524;51.364;5.448;2023-04-03T09:46:15;1.10;;;1.00;;
8978;SDS011;4524;51.364;5.448;2023-04-03T09:48:49;2.60;;;1.40;;
8978;SDS011;4524;51.364;5.448;2023-04-03T09:51:35;2.83;;;1.20;;
8978;SDS011;4524;51.364;5.448;2023-04-03T09:54:24;2.80;;;1.23;;
8978;SDS011;4524;51.364;5.448;2023-04-03T09:56:57;3.00;;;1.33;;
8978;SDS011;4524;51.364;5.448;2023-04-03T09:59:29;2.07;;;1.40;;
8978;SDS011;4524;51.364;5.448;2023-04-03T10:01:59;4.13;;;1.13;;
8978;SDS011;4524;51.364;5.448;2023-04-03T10:04:37;2.27;;;1.20;;
8978;SDS011;4524;51.364;5.448;2023-04-03T10:10:02;1.70;;;1.03;;
8978;SDS011;4524;51.364;5.448;2023-04-03T10:12:43;1.90;;;1.27;;
8978;SDS011;4524;51.364;5.448;2023-04-03T10:15:12;1.53;;;1.07;;
8978;SDS011;4524;51.364;5.448;2023-04-03T10:17:47;1.50;;;1.40;;
8978;SDS011;4524;51.364;5.448;2023-04-03T10:20:30;1.27;;;1.17;;
8978;SDS011;4524;51.364;5.448;2023-04-03T10:23:12;2.23;;;1.20;;
8978;SDS011;4524;51.364;5.448;2023-04-03T10:25:48;2.20;;;1.00;;
8978;SDS011;4524;51.364;5.448;2023-04-03T10:28:27;3.07;;;1.40;;
8978;SDS011;4524;51.364;5.448;2023-04-03T10:31:02;2.20;;;1.30;;
8978;SDS011;4524;51.364;5.448;2023-04-03T10:33:39;2.03;;;1.30;;
8978;SDS011;4524;51.364;5.448;2023-04-03T10:36:20;2.20;;;1.50;;
8978;SDS011;4524;51.364;5.448;2023-04-03T10:39:02;2.13;;;1.30;;
8978;SDS011;4524;51.364;5.448;2023-04-03T10:41:43;2.77;;;1.30;;
8978;SDS011;4524;51.364;5.448;2023-04-03T10:44:32;2.87;;;1.37;;
8978;SDS011;4524;51.364;5.448;2023-04-03T10:47:10;3.63;;;1.30;;
8978;SDS011;4524;51.364;5.448;2023-04-03T10:49:45;1.70;;;1.27;;
8978;SDS011;4524;51.364;5.448;2023-04-03T10:52:27;3.50;;;1.30;;
8978;SDS011;4524;51.364;5.448;2023-04-03T10:55:13;1.93;;;1.30;;
8978;SDS011;4524;51.364;5.448;2023-04-03T10:57:52;2.93;;;1.33;;
8978;SDS011;4524;51.364;5.448;2023-04-03T11:00:25;2.60;;;1.37;;
8978;SDS011;4524;51.364;5.448;2023-04-03T11:02:58;1.97;;;1.43;;
8978;SDS011;4524;51.364;5.448;2023-04-03T11:05:31;3.37;;;1.10;;
8978;SDS011;4524;51.364;5.448;2023-04-03T11:08:05;1.53;;;1.13;;
8978;SDS011;4524;51.364;5.448;2023-04-03T11:10:42;1.43;;;1.10;;
8978;SDS011;4524;51.364;5.448;2023-04-03T11:13:15;2.13;;;1.17;;
8978;SDS011;4524;51.364;5.448;2023-04-03T11:15:45;3.23;;;1.33;;
8978;SDS011;4524;51.364;5.448;2023-04-03T11:18:13;2.07;;;1.20;;
8978;SDS011;4524;51.364;5.448;2023-04-03T11:20:47;1.30;;;1.20;;
8978;SDS011;4524;51.364;5.448;2023-04-03T11:23:25;2.60;;;1.10;;
8978;SDS011;4524;51.364;5.448;2023-04-03T11:26:09;1.20;;;1.10;;
8978;SDS011;4524;51.364;5.448;2023-04-03T11:28:39;2.10;;;1.13;;
8978;SDS011;4524;51.364;5.448;2023-04-03T11:31:10;1.10;;;1.00;;
8978;SDS011;4524;51.364;5.448;2023-04-03T11:33:50;2.60;;;1.23;;
8978;SDS011;4524;51.364;5.448;2023-04-03T11:36:26;1.00;;;1.00;;
8978;SDS011;4524;51.364;5.448;2023-04-03T11:39:02;2.37;;;1.20;;
8978;SDS011;4524;51.364;5.448;2023-04-03T11:41:42;1.97;;;1.27;;
8978;SDS011;4524;51.364;5.448;2023-04-03T11:44:25;2.63;;;1.23;;
8978;SDS011;4524;51.364;5.448;2023-04-03T11:46:59;1.73;;;1.23;;
8978;SDS011;4524;51.364;5.448;2023-04-03T11:55:43;1.67;;;1.27;;
8978;SDS011;4524;51.364;5.448;2023-04-03T11:58:20;1.30;;;1.00;;
8978;SDS011;4524;51.364;5.448;2023-04-03T12:00:53;2.43;;;1.20;;
8978;SDS011;4524;51.364;5.448;2023-04-03T12:03:33;1.90;;;1.27;;
8978;SDS011;4524;51.364;5.448;2023-04-03T12:09:57;3.53;;;1.30;;
8978;SDS011;4524;51.364;5.448;2023-04-03T12:12:34;1.50;;;1.20;;
8978;SDS011;4524;51.364;5.448;2023-04-03T12:15:19;1.57;;;1.30;;
8978;SDS011;4524;51.364;5.448;2023-04-03T12:21:08;2.53;;;1.10;;
8978;SDS011;4524;51.364;5.448;2023-04-03T12:26:32;2.47;;;1.27;;
8978;SDS011;4524;51.364;5.448;2023-04-03T12:29:15;2.03;;;1.30;;
8978;SDS011;4524;51.364;5.448;2023-04-03T12:31:52;2.57;;;1.13;;
8978;SDS011;4524;51.364;5.448;2023-04-03T12:34:33;1.67;;;1.03;;
8978;SDS011;4524;51.364;5.448;2023-04-03T12:37:17;2.10;;;1.33;;
8978;SDS011;4524;51.364;5.448;2023-04-03T12:39:58;1.57;;;1.20;;
8978;SDS011;4524;51.364;5.448;2023-04-03T12:42:43;3.60;;;1.33;;
8978;SDS011;4524;51.364;5.448;2023-04-03T12:45:24;1.70;;;1.30;;
8978;SDS011;4524;51.364;5.448;2023-04-03T12:47:55;5.07;;;1.20;;
8978;SDS011;4524;51.364;5.448;2023-04-03T12:50:24;2.33;;;1.27;;
8978;SDS011;4524;51.364;5.448;2023-04-03T12:52:57;2.17;;;1.30;;
8978;SDS011;4524;51.364;5.448;2023-04-03T12:55:28;3.77;;;1.30;;
8978;SDS011;4524;51.364;5.448;2023-04-03T12:57:57;2.20;;;1.00;;
8978;SDS011;4524;51.364;5.448;2023-04-03T13:00:28;2.53;;;1.13;;
8978;SDS011;4524;51.364;5.448;2023-04-03T13:03:01;2.00;;;1.20;;
8978;SDS011;4524;51.364;5.448;2023-04-03T13:05:31;2.00;;;1.37;;
8978;SDS011;4524;51.364;5.448;2023-04-03T13:08:04;2.00;;;1.30;;
8978;SDS011;4524;51.364;5.448;2023-04-03T13:10:42;1.60;;;1.30;;
8978;SDS011;4524;51.364;5.448;2023-04-03T13:13:15;2.20;;;1.30;;
8978;SDS011;4524;51.364;5.448;2023-04-03T13:15:47;2.27;;;1.57;;
8978;SDS011;4524;51.364;5.448;2023-04-03T13:18:25;1.27;;;1.17;;
8978;SDS011;4524;51.364;5.448;2023-04-03T13:20:57;1.50;;;1.27;;
8978;SDS011;4524;51.364;5.448;2023-04-03T13:23:29;2.63;;;1.30;;
8978;SDS011;4524;51.364;5.448;2023-04-03T13:25:57;1.53;;;1.20;;
8978;SDS011;4524;51.364;5.448;2023-04-03T13:28:30;2.20;;;1.20;;
8978;SDS011;4524;51.364;5.448;2023-04-03T13:31:05;1.80;;;1.27;;
8978;SDS011;4524;51.364;5.448;2023-04-03T13:33:39;3.30;;;1.60;;
8978;SDS011;4524;51.364;5.448;2023-04-03T13:36:19;3.33;;;1.30;;
8978;SDS011;4524;51.364;5.448;2023-04-03T13:38:57;1.63;;;1.23;;
8978;SDS011;4524;51.364;5.448;2023-04-03T13:41:28;4.40;;;3.17;;
8978;SDS011;4524;51.364;5.448;2023-04-03T13:46:45;2.37;;;1.37;;
8978;SDS011;4524;51.364;5.448;2023-04-03T13:49:18;3.70;;;1.47;;
8978;SDS011;4524;51.364;5.448;2023-04-03T13:51:47;2.00;;;1.33;;
8978;SDS011;4524;51.364;5.448;2023-04-03T13:54:33;3.27;;;1.50;;
8978;SDS011;4524;51.364;5.448;2023-04-03T13:57:10;2.53;;;1.47;;
8978;SDS011;4524;51.364;5.448;2023-04-03T13:59:40;3.03;;;1.47;;
8978;SDS011;4524;51.364;5.448;2023-04-03T14:02:12;3.07;;;1.20;;
8978;SDS011;4524;51.364;5.448;2023-04-03T14:04:48;3.20;;;1.50;;
8978;SDS011;4524;51.364;5.448;2023-04-03T14:07:22;3.67;;;1.30;;
8978;SDS011;4524;51.364;5.448;2023-04-03T14:09:51;2.33;;;1.20;;
8978;SDS011;4524;51.364;5.448;2023-04-03T14:12:21;3.43;;;1.77;;
8978;SDS011;4524;51.364;5.448;2023-04-03T14:14:57;3.07;;;1.77;;
8978;SDS011;4524;51.364;5.448;2023-04-03T14:17:27;3.27;;;1.60;;
8978;SDS011;4524;51.364;5.448;2023-04-03T14:19:57;3.07;;;1.80;;
8978;SDS011;4524;51.364;5.448;2023-04-03T14:22:28;3.97;;;1.60;;
8978;SDS011;4524;51.364;5.448;2023-04-03T14:24:57;2.20;;;1.40;;
8978;SDS011;4524;51.364;5.448;2023-04-03T14:27:28;4.70;;;1.47;;
8978;SDS011;4524;51.364;5.448;2023-04-03T14:29:58;2.37;;;1.60;;
8978;SDS011;4524;51.364;5.448;2023-04-03T14:32:26;2.90;;;1.43;;
8978;SDS011;4524;51.364;5.448;2023-04-03T14:34:54;2.13;;;1.50;;
8978;SDS011;4524;51.364;5.448;2023-04-03T14:37:26;3.77;;;1.60;;
8978;SDS011;4524;51.364;5.448;2023-04-03T14:39:56;2.60;;;1.70;;
8978;SDS011;4524;51.364;5.448;2023-04-03T14:42:26;3.80;;;1.87;;
8978;SDS011;4524;51.364;5.448;2023-04-03T14:44:57;3.90;;;1.70;;
8978;SDS011;4524;51.364;5.448;2023-04-03T14:47:26;5.17;;;1.60;;
8978;SDS011;4524;51.364;5.448;2023-04-03T14:49:59;3.37;;;1.70;;
8978;SDS011;4524;51.364;5.448;2023-04-03T14:52:29;2.50;;;1.80;;
8978;SDS011;4524;51.364;5.448;2023-04-03T14:54:59;3.60;;;1.50;;
8978;SDS011;4524;51.364;5.448;2023-04-03T14:57:28;2.67;;;1.63;;
8978;SDS011;4524;51.364;5.448;2023-04-03T14:59:57;2.37;;;1.60;;
8978;SDS011;4524;51.364;5.448;2023-04-03T15:02:28;3.90;;;1.73;;
8978;SDS011;4524;51.364;5.448;2023-04-03T15:04:57;3.27;;;1.77;;
8978;SDS011;4524;51.364;5.448;2023-04-03T15:07:29;3.43;;;1.60;;
8978;SDS011;4524;51.364;5.448;2023-04-03T15:09:59;1.70;;;1.43;;
8978;SDS011;4524;51.364;5.448;2023-04-03T15:12:31;4.80;;;1.83;;
8978;SDS011;4524;51.364;5.448;2023-04-03T15:14:58;2.93;;;2.00;;
8978;SDS011;4524;51.364;5.448;2023-04-03T15:17:29;3.70;;;1.70;;
8978;SDS011;4524;51.364;5.448;2023-04-03T15:19:57;4.50;;;1.73;;
8978;SDS011;4524;51.364;5.448;2023-04-03T15:22:27;3.03;;;1.80;;
8978;SDS011;4524;51.364;5.448;2023-04-03T15:24:56;2.60;;;1.33;;
8978;SDS011;4524;51.364;5.448;2023-04-03T15:27:23;3.77;;;1.73;;
8978;SDS011;4524;51.364;5.448;2023-04-03T15:29:52;3.50;;;1.70;;
8978;SDS011;4524;51.364;5.448;2023-04-03T15:32:19;3.83;;;1.87;;
8978;SDS011;4524;51.364;5.448;2023-04-03T15:34:47;4.67;;;1.67;;
8978;SDS011;4524;51.364;5.448;2023-04-03T15:37:18;2.47;;;1.50;;
8978;SDS011;4524;51.364;5.448;2023-04-03T15:39:46;2.87;;;1.90;;
8978;SDS011;4524;51.364;5.448;2023-04-03T15:42:14;5.20;;;1.70;;
8978;SDS011;4524;51.364;5.448;2023-04-03T15:44:42;2.33;;;1.60;;
8978;SDS011;4524;51.364;5.448;2023-04-03T15:47:10;4.97;;;1.90;;
8978;SDS011;4524;51.364;5.448;2023-04-03T15:49:38;4.63;;;1.80;;
8978;SDS011;4524;51.364;5.448;2023-04-03T15:52:06;3.63;;;2.00;;
8978;SDS011;4524;51.364;5.448;2023-04-03T15:54:36;5.07;;;1.70;;
8978;SDS011;4524;51.364;5.448;2023-04-03T15:57:03;2.10;;;1.63;;
8978;SDS011;4524;51.364;5.448;2023-04-03T15:59:32;3.40;;;1.80;;
8978;SDS011;4524;51.364;5.448;2023-04-03T16:01:59;3.13;;;1.87;;